Time;durP1;ratioP1;P1;durP2;ratioP2;P2;SDS_P1;SDS_P2;PMS_P1;PMS_P2;Temp;Humidity;BMP_temperature;BMP_pressure;BME280_temperature;BME280_humidity;BME280_pressure;Samples;Min_cycle;Max_cycle;Signal;HPM_P1;HPM_P2
2023/12/28 00:00:22;;;;;;;6.17;2.50;;;;;;;7.47;100.00;100810.09;5039197;28;20184;-73
2023/12/28 00:02:48;;;;;;;7.27;2.37;;;;;;;7.25;100.00;100766.41;5039887;28;20263;-73
2023/12/28 00:05:13;;;;;;;6.30;2.20;;;;;;;7.89;100.00;100871.97;5038629;28;20246;-73
2023/12/28 00:07:39;;;;;;;8.43;2.40;;;;;;;7.57;100.00;100820.50;5037142;28;20175;-73
2023/12/28 00:10:04;;;;;;;5.90;2.30;;;;;;;7.68;100.00;100864.66;5038008;28;20304;-73
2023/12/28 00:12:30;;;;;;;7.03;2.10;;;;;;;7.16;100.00;100770.13;5034622;28;20665;-73
2023/12/28 00:14:55;;;;;;;5.93;2.50;;;;;;;7.25;100.00;100785.06;5037913;28;20261;-73
2023/12/28 00:17:21;;;;;;;6.33;2.07;;;;;;;8.14;100.00;100920.69;5017159;28;20183;-73
2023/12/28 00:19:46;;;;;;;6.60;2.43;;;;;;;7.32;100.00;100763.00;5040207;28;20183;-73
2023/12/28 00:22:12;;;;;;;7.37;2.20;;;;;;;7.40;100.00;100803.78;5034623;28;20237;-73
2023/12/28 00:24:37;;;;;;;6.03;2.10;;;;;;;8.20;100.00;100929.81;5040527;28;20227;-73
2023/12/28 00:27:03;;;;;;;6.07;2.13;;;;;;;7.67;100.00;100849.66;5036883;28;20249;-73
2023/12/28 00:29:29;;;;;;;7.93;2.50;;;;;;;7.71;100.00;100856.28;5035841;28;20211;-73
2023/12/28 00:31:54;;;;;;;6.20;2.57;;;;;;;7.99;100.00;100893.13;5039240;28;20488;-73
2023/12/28 00:34:20;;;;;;;5.90;2.40;;;;;;;7.78;100.00;100857.25;5033220;28;20712;-73
2023/12/28 00:36:45;;;;;;;5.53;2.40;;;;;;;8.11;100.00;100899.69;5036783;28;20241;-73
2023/12/28 00:39:11;;;;;;;6.40;2.90;;;;;;;8.18;100.00;100903.28;5038475;28;20192;-73
2023/12/28 00:41:36;;;;;;;5.03;2.20;;;;;;;7.68;100.00;100805.91;5034653;28;20282;-73
2023/12/28 00:44:02;;;;;;;6.93;2.47;;;;;;;8.25;100.00;100900.72;5035064;28;20207;-73
2023/12/28 00:46:28;;;;;;;5.20;2.43;;;;;;;7.97;100.00;100842.53;5037384;28;20656;-73
2023/12/28 00:48:53;;;;;;;7.53;2.73;;;;;;;8.37;100.00;100908.09;5038914;28;20268;-73
2023/12/28 00:51:20;;;;;;;6.73;2.20;;;;;;;7.70;100.00;100799.38;5034679;28;20655;-74
2023/12/28 00:53:45;;;;;;;8.20;2.53;;;;;;;7.53;100.00;100757.00;5035859;28;20204;-73
2023/12/28 00:56:11;;;;;;;7.70;2.70;;;;;;;8.29;100.00;100888.66;5037309;28;20824;-75
2023/12/28 00:58:40;;;;;;;6.43;2.73;;;;;;;7.95;100.00;100833.84;5036617;28;20380;-73
2023/12/28 01:01:05;;;;;;;7.60;2.63;;;;;;;8.51;100.00;100924.38;5037825;28;20178;-73
2023/12/28 01:03:31;;;;;;;5.60;2.57;;;;;;;7.72;100.00;100801.84;5036593;28;20431;-73
2023/12/28 01:05:56;;;;;;;10.27;3.03;;;;;;;8.54;100.00;100924.84;5019316;28;20216;-73
2023/12/28 01:08:22;;;;;;;6.77;2.93;;;;;;;8.59;100.00;100934.97;5032516;28;20180;-73
2023/12/28 01:10:47;;;;;;;6.80;2.53;;;;;;;8.34;100.00;100894.28;5037452;28;20191;-73
2023/12/28 01:13:13;;;;;;;7.93;3.03;;;;;;;8.47;100.00;100910.53;5039535;28;20207;-73
2023/12/28 01:15:38;;;;;;;7.87;2.60;;;;;;;8.53;100.00;100936.56;5036104;28;20212;-74
2023/12/28 01:18:04;;;;;;;6.23;2.53;;;;;;;7.96;100.00;100837.38;5035702;28;20242;-73
2023/12/28 01:20:29;;;;;;;6.10;2.43;;;;;;;7.68;100.00;100817.41;5036474;28;20571;-73
2023/12/28 01:22:55;;;;;;;7.00;2.20;;;;;;;8.52;100.00;100937.53;5035423;28;20271;-73
2023/12/28 01:25:20;;;;;;;7.63;3.07;;;;;;;8.34;100.00;100891.59;5034624;28;20724;-73
2023/12/28 01:27:45;;;;;;;7.03;2.57;;;;;;;8.52;100.00;100931.38;5033123;28;20196;-73
2023/12/28 01:30:11;;;;;;;6.87;2.47;;;;;;;7.79;100.00;100821.50;5034767;28;20184;-73
2023/12/28 01:32:36;;;;;;;8.20;2.70;;;;;;;8.39;100.00;100915.97;5034360;28;20363;-73
2023/12/28 01:35:02;;;;;;;8.53;2.77;;;;;;;8.10;100.00;100876.63;5035195;28;20279;-73
2023/12/28 01:37:30;;;;;;;9.10;2.87;;;;;;;8.30;100.00;100899.16;5036291;28;20302;-73
2023/12/28 01:39:56;;;;;;;8.73;2.97;;;;;;;8.17;100.00;100874.06;5037059;28;20203;-72
2023/12/28 01:42:21;;;;;;;8.43;2.70;;;;;;;8.04;100.00;100861.31;5033697;28;20469;-73
2023/12/28 01:44:46;;;;;;;7.43;2.90;;;;;;;8.10;100.00;100874.81;5035100;28;20216;-73
2023/12/28 01:47:12;;;;;;;6.93;2.80;;;;;;;8.54;100.00;100948.91;5035522;28;20195;-73
2023/12/28 01:49:38;;;;;;;9.07;2.70;;;;;;;8.15;100.00;100871.56;5018401;28;20188;-73
2023/12/28 01:52:04;;;;;;;8.90;2.73;;;;;;;8.49;100.00;100947.78;5035098;28;20285;-73
2023/12/28 01:54:30;;;;;;;11.13;3.10;;;;;;;8.13;100.00;100878.97;5033649;28;20446;-73
2023/12/28 01:56:57;;;;;;;6.93;2.57;;;;;;;8.17;100.00;100885.59;5034942;28;20449;-73
2023/12/28 01:59:22;;;;;;;9.33;2.60;;;;;;;8.49;100.00;100940.59;5033599;28;20207;-73
2023/12/28 02:01:48;;;;;;;9.10;2.80;;;;;;;8.01;100.00;100865.19;5035432;28;20491;-73
2023/12/28 02:04:14;;;;;;;7.70;3.00;;;;;;;8.31;100.00;100921.38;5016570;28;20253;-73
2023/12/28 02:06:40;;;;;;;9.10;2.80;;;;;;;8.07;100.00;100866.31;5034948;28;20430;-73
2023/12/28 02:09:05;;;;;;;7.33;2.73;;;;;;;7.95;100.00;100847.22;5019043;28;20215;-73
2023/12/28 02:11:30;;;;;;;9.77;3.30;;;;;;;8.55;100.00;100944.38;5037325;28;20270;-73
2023/12/28 02:13:56;;;;;;;11.33;3.10;;;;;;;7.57;100.00;100783.16;5036985;28;20222;-73
2023/12/28 02:16:29;;;;;;;9.07;2.50;;;;;;;8.55;100.00;100955.06;5037172;28;20190;-73
2023/12/28 02:19:00;;;;;;;7.90;2.93;;;;;;;8.12;100.00;100866.59;5037962;28;21030;-73
2023/12/28 02:21:27;;;;;;;10.30;2.60;;;;;;;8.20;100.00;100881.72;5038844;28;20449;-73
2023/12/28 02:23:53;;;;;;;8.40;2.70;;;;;;;8.42;100.00;100931.66;5036073;28;21028;-73
2023/12/28 02:26:18;;;;;;;9.10;2.90;;;;;;;7.96;100.00;100848.06;5041094;28;20443;-73
2023/12/28 02:28:47;;;;;;;10.20;3.93;;;;;;;8.22;100.00;100901.91;5036934;28;20240;-73
2023/12/28 02:31:28;;;;;;;8.97;3.27;;;;;;;8.52;100.00;100937.53;5037136;28;20202;-73
2023/12/28 02:34:12;;;;;;;11.67;2.93;;;;;;;8.30;100.00;100888.47;5035861;28;20552;-73
2023/12/28 02:36:41;;;;;;;7.30;2.23;;;;;;;8.53;100.00;100939.22;5018594;28;20442;-73
2023/12/28 02:39:09;;;;;;;13.23;4.60;;;;;;;8.58;100.00;100935.97;5034201;28;20441;-73
2023/12/28 02:41:35;;;;;;;9.17;2.50;;;;;;;8.34;100.00;100903.13;5035681;28;24349;-73
2023/12/28 02:44:01;;;;;;;7.20;2.40;;;;;;;7.67;100.00;100777.56;5020839;28;20457;-73
2023/12/28 02:46:26;;;;;;;12.00;3.53;;;;;;;8.57;100.00;100940.50;5038321;28;20529;-73
2023/12/28 02:48:52;;;;;;;12.33;2.80;;;;;;;7.67;100.00;100801.59;5040376;28;20442;-72
2023/12/28 02:51:18;;;;;;;7.67;2.50;;;;;;;8.28;100.00;100871.78;5041538;28;20587;-74
2023/12/28 02:53:43;;;;;;;10.27;2.67;;;;;;;8.16;100.00;100883.94;5025793;28;20208;-73
2023/12/28 02:56:09;;;;;;;10.07;3.10;;;;;;;7.69;100.00;100792.41;5038896;28;20669;-73
2023/12/28 02:58:34;;;;;;;5.90;2.47;;;;;;;8.52;100.00;100915.34;5024577;28;20609;-73
2023/12/28 03:00:59;;;;;;;12.53;3.20;;;;;;;8.06;100.00;100840.63;5039369;28;20879;-73
2023/12/28 03:03:25;;;;;;;7.77;2.70;;;;;;;8.43;100.00;100921.78;5035312;28;20200;-73
2023/12/28 03:05:50;;;;;;;8.20;2.60;;;;;;;8.43;100.00;100905.75;5038533;28;20548;-73
2023/12/28 03:08:16;;;;;;;14.17;3.13;;;;;;;8.42;100.00;100909.41;5041054;28;20633;-73
2023/12/28 03:10:42;;;;;;;8.70;2.90;;;;;;;8.37;100.00;100908.09;5040790;28;20187;-73
2023/12/28 03:13:07;;;;;;;8.73;2.33;;;;;;;8.41;100.00;100911.25;5038544;28;20204;-73
2023/12/28 03:15:33;;;;;;;9.67;2.57;;;;;;;8.36;100.00;100897.56;5038133;28;20994;-73
2023/12/28 03:17:58;;;;;;;12.03;2.73;;;;;;;8.27;100.00;100877.28;5037435;28;20252;-73
2023/12/28 03:20:24;;;;;;;10.13;2.67;;;;;;;7.62;100.00;100782.63;5040791;28;20196;-73
2023/12/28 03:22:49;;;;;;;13.00;3.70;;;;;;;7.61;100.00;100791.66;5037174;28;20175;-73
2023/12/28 03:25:15;;;;;;;9.47;2.60;;;;;;;7.52;100.00;100744.66;5038219;28;20290;-73
2023/12/28 03:27:40;;;;;;;11.37;2.50;;;;;;;8.51;100.00;100893.13;5036557;28;20186;-73
2023/12/28 03:30:06;;;;;;;8.37;3.07;;;;;;;8.55;100.00;100897.06;5036449;28;20186;-73
2023/12/28 03:32:31;;;;;;;9.80;2.70;;;;;;;8.13;100.00;100826.34;5036830;28;20833;-73
2023/12/28 03:34:57;;;;;;;11.50;3.10;;;;;;;8.44;100.00;100880.66;5033567;28;20465;-73
2023/12/28 03:37:23;;;;;;;11.57;3.23;;;;;;;7.76;100.00;100744.44;5035623;28;20184;-73
2023/12/28 03:39:48;;;;;;;10.83;2.93;;;;;;;7.73;100.00;100768.84;5038810;28;20192;-73
2023/12/28 03:42:14;;;;;;;8.10;2.27;;;;;;;7.98;100.00;100798.78;5036532;28;20182;-73
2023/12/28 03:44:39;;;;;;;9.20;3.10;;;;;;;8.30;100.00;100850.22;5038329;28;20245;-73
2023/12/28 03:47:05;;;;;;;13.73;2.83;;;;;;;8.31;100.00;100844.69;5036389;28;20448;-73
2023/12/28 03:49:30;;;;;;;12.23;3.07;;;;;;;8.14;100.00;100827.19;5034249;28;20321;-73
2023/12/28 03:51:56;;;;;;;9.47;2.70;;;;;;;7.65;100.00;100745.69;5035431;28;20225;-74
2023/12/28 03:54:21;;;;;;;11.13;2.53;;;;;;;8.22;100.00;100824.41;5040192;28;20738;-73
2023/12/28 03:56:46;;;;;;;7.20;2.70;;;;;;;7.81;100.00;100781.25;5037842;28;20708;-73
2023/12/28 03:59:12;;;;;;;8.80;2.40;;;;;;;7.76;100.00;100744.44;5036150;28;20233;-73
2023/12/28 04:01:38;;;;;;;6.60;2.00;;;;;;;8.43;100.00;100838.91;5040027;28;20183;-73
2023/12/28 04:04:03;;;;;;;9.37;2.27;;;;;;;8.53;100.00;100859.03;5038582;28;20208;-73
2023/12/28 04:06:29;;;;;;;10.17;2.93;;;;;;;8.60;100.00;100872.47;5039374;28;20564;-73
2023/12/28 04:08:54;;;;;;;8.20;2.47;;;;;;;7.77;100.00;100723.91;5037424;28;20224;-73
2023/12/28 04:11:20;;;;;;;7.80;2.60;;;;;;;7.99;100.00;100773.75;5036479;28;20192;-73
2023/12/28 04:13:45;;;;;;;11.80;2.43;;;;;;;8.72;100.00;100875.50;5036620;28;20212;-73
2023/12/28 04:16:14;;;;;;;8.43;2.07;;;;;;;8.31;100.00;100806.44;5038321;28;20848;-73
2023/12/28 04:18:41;;;;;;;9.70;2.20;;;;;;;8.77;100.00;100903.34;5038373;28;20326;-73
2023/12/28 04:21:13;;;;;;;8.80;2.30;;;;;;;8.47;100.00;100816.13;5038392;28;20964;-73
2023/12/28 04:23:39;;;;;;;11.23;2.80;;;;;;;8.85;100.00;100897.06;5037757;28;20495;-73
2023/12/28 04:26:05;;;;;;;7.23;2.03;;;;;;;8.89;100.00;100874.28;5035480;28;20478;-73
2023/12/28 04:28:31;;;;;;;11.80;2.70;;;;;;;8.75;100.00;100869.78;5037576;28;21702;-73
2023/12/28 04:30:56;;;;;;;11.63;2.20;;;;;;;8.67;100.00;100854.66;5037709;28;20211;-73
2023/12/28 04:33:21;;;;;;;11.77;3.97;;;;;;;8.76;100.00;100880.28;5035103;28;20751;-74
2023/12/28 04:35:47;;;;;;;7.53;2.50;;;;;;;8.49;100.00;100812.28;5037241;28;20180;-74
2023/12/28 04:38:13;;;;;;;11.00;2.67;;;;;;;8.99;100.00;100884.69;5036781;28;20187;-73
2023/12/28 04:40:38;;;;;;;10.97;2.70;;;;;;;9.01;100.00;100888.84;5034941;28;20286;-73
2023/12/28 04:43:03;;;;;;;10.50;2.33;;;;;;;8.61;100.00;100815.31;5034891;28;20728;-73
2023/12/28 04:45:29;;;;;;;14.63;2.50;;;;;;;8.93;100.00;100875.56;5038177;28;20647;-73
2023/12/28 04:47:54;;;;;;;11.50;2.63;;;;;;;8.63;100.00;100837.34;5022143;28;20202;-73
2023/12/28 04:50:20;;;;;;;11.93;2.53;;;;;;;9.10;100.00;100892.22;5035387;28;20245;-73
2023/12/28 04:52:45;;;;;;;11.90;2.27;;;;;;;8.24;100.00;100765.44;5039389;28;20204;-73
2023/12/28 04:55:11;;;;;;;11.50;2.10;;;;;;;9.09;100.00;100879.88;5038459;28;20257;-73
2023/12/28 04:57:36;;;;;;;12.53;3.20;;;;;;;8.91;100.00;100839.31;5038195;28;20274;-73
2023/12/28 05:00:03;;;;;;;12.10;2.10;;;;;;;9.17;100.00;100885.13;5038348;28;20200;-73
2023/12/28 05:02:28;;;;;;;9.20;1.63;;;;;;;9.01;100.00;100878.13;5034953;28;20199;-73
2023/12/28 05:04:54;;;;;;;13.20;2.57;;;;;;;8.99;100.00;100861.44;5037054;28;20470;-73
2023/12/28 05:07:19;;;;;;;22.63;2.43;;;;;;;9.06;100.00;100848.16;5035374;28;20188;-73
2023/12/28 05:09:45;;;;;;;10.93;2.87;;;;;;;8.59;100.00;100786.09;5036927;28;20747;-73
2023/12/28 05:12:10;;;;;;;12.77;2.87;;;;;;;9.34;100.00;100904.44;5035634;28;20219;-73
2023/12/28 05:14:36;;;;;;;15.70;3.20;;;;;;;9.49;100.00;100899.88;5034819;28;20207;-73
2023/12/28 05:17:01;;;;;;;12.57;2.60;;;;;;;9.48;100.00;100924.16;5036285;28;20198;-73
2023/12/28 05:19:26;;;;;;;15.40;2.13;;;;;;;9.43;100.00;100907.84;5037899;28;20195;-73
2023/12/28 05:21:52;;;;;;;13.70;2.83;;;;;;;8.81;100.00;100816.38;5032993;28;20218;-73
2023/12/28 05:24:17;;;;;;;16.37;3.40;;;;;;;8.67;100.00;100787.81;5034782;28;20203;-73
2023/12/28 05:26:43;;;;;;;13.30;2.70;;;;;;;9.68;100.00;100929.72;5035909;28;20314;-73
2023/12/28 05:29:08;;;;;;;13.53;2.53;;;;;;;9.39;100.00;100893.19;5036676;28;20192;-73
2023/12/28 05:31:33;;;;;;;13.40;2.70;;;;;;;9.08;100.00;100851.44;5036550;28;20273;-73
2023/12/28 05:33:59;;;;;;;11.00;2.30;;;;;;;9.76;100.00;100934.16;5029875;28;20780;-73
2023/12/28 05:36:25;;;;;;;17.40;2.70;;;;;;;9.72;100.00;100955.13;5035411;28;20194;-73
2023/12/28 05:38:50;;;;;;;16.50;2.10;;;;;;;9.46;100.00;100896.78;5034307;28;20491;-73
2023/12/28 05:41:16;;;;;;;13.27;2.47;;;;;;;9.79;100.00;100955.19;5038035;28;20183;-73
2023/12/28 05:43:42;;;;;;;18.27;3.17;;;;;;;9.58;100.00;100905.94;5035966;28;20298;-73
2023/12/28 05:46:07;;;;;;;14.90;2.70;;;;;;;9.72;100.00;100945.25;5034014;28;20242;-73
2023/12/28 05:48:33;;;;;;;16.23;3.30;;;;;;;9.73;100.00;100972.84;5037003;28;20721;-73
2023/12/28 05:50:58;;;;;;;11.33;2.03;;;;;;;8.81;100.00;100823.56;5036894;28;20257;-73
2023/12/28 05:53:27;;;;;;;11.00;2.27;;;;;;;9.83;100.00;100951.94;5036266;28;20419;-74
2023/12/28 05:55:53;;;;;;;13.57;2.40;;;;;;;9.89;100.00;100980.66;5034220;28;20187;-73
2023/12/28 05:58:18;;;;;;;13.13;2.97;;;;;;;8.93;100.00;100800.66;5044140;28;20442;-73
2023/12/28 06:00:46;;;;;;;13.70;2.57;;;;;;;9.93;100.00;101003.34;5031639;28;20199;-73
2023/12/28 06:03:11;;;;;;;13.03;3.23;;;;;;;9.90;100.00;100965.41;5036066;28;20187;-73
2023/12/28 06:05:37;;;;;;;20.30;2.57;;;;;;;9.43;100.00;100889.09;5034406;28;20465;-73
2023/12/28 06:08:02;;;;;;;14.57;3.00;;;;;;;9.86;100.00;100962.25;5037816;28;20180;-73
2023/12/28 06:10:28;;;;;;;14.57;2.67;;;;;;;9.56;100.00;100921.38;5031851;28;20275;-73
2023/12/28 06:12:53;;;;;;;14.73;2.87;;;;;;;9.97;100.00;100990.41;5018292;28;20646;-73
2023/12/28 06:15:18;;;;;;;13.53;2.70;;;;;;;9.17;100.00;100865.53;5037524;28;20231;-73
2023/12/28 06:17:44;;;;;;;14.50;2.83;;;;;;;9.44;100.00;100904.16;5036932;28;20210;-73
2023/12/28 06:20:10;;;;;;;16.70;2.90;;;;;;;9.35;100.00;100891.91;5035508;28;20208;-73
2023/12/28 06:22:38;;;;;;;18.40;3.10;;;;;;;9.79;100.00;100961.38;5035234;28;20195;-73
2023/12/28 06:25:04;;;;;;;12.60;2.63;;;;;;;10.00;100.00;100962.41;5036175;28;20500;-73
2023/12/28 06:27:30;;;;;;;13.40;2.23;;;;;;;9.97;100.00;100968.97;5035980;28;20445;-73
2023/12/28 06:29:56;;;;;;;15.20;3.20;;;;;;;9.76;100.00;100934.16;5035279;28;20657;-73
2023/12/28 06:32:22;;;;;;;14.80;3.27;;;;;;;9.98;100.00;100976.00;5036627;28;20461;-73
2023/12/28 06:34:48;;;;;;;11.63;2.50;;;;;;;9.37;100.00;100881.81;5016112;28;20489;-72
2023/12/28 06:37:14;;;;;;;18.63;3.43;;;;;;;9.36;100.00;100880.19;5035737;28;20199;-72
2023/12/28 06:39:39;;;;;;;11.80;2.70;;;;;;;9.43;100.00;100883.75;5037615;28;20445;-73
2023/12/28 06:42:05;;;;;;;21.43;2.90;;;;;;;9.59;100.00;100904.09;5032837;28;20199;-73
2023/12/28 06:44:31;;;;;;;14.87;3.63;;;;;;;9.30;100.00;100840.78;5039487;28;21080;-73
2023/12/28 06:46:56;;;;;;;16.13;2.67;;;;;;;9.93;100.00;100940.91;5038773;28;20540;-73
2023/12/28 06:49:22;;;;;;;12.60;2.60;;;;;;;9.65;100.00;100890.78;5040099;28;20194;-72
2023/12/28 06:51:47;;;;;;;18.50;2.57;;;;;;;10.01;100.00;100953.31;5016491;28;20203;-73
2023/12/28 06:54:13;;;;;;;14.57;2.80;;;;;;;10.01;100.00;100985.47;5035212;28;20266;-73
2023/12/28 06:56:39;;;;;;;16.90;3.17;;;;;;;9.67;100.00;100898.63;5036875;28;20194;-72
2023/12/28 06:59:04;;;;;;;16.20;2.60;;;;;;;9.77;100.00;100906.31;5034476;28;20437;-72
2023/12/28 07:01:29;;;;;;;15.80;2.80;;;;;;;9.75;100.00;100933.31;5036726;28;20196;-72
2023/12/28 07:03:55;;;;;;;16.07;2.83;;;;;;;9.89;100.00;100929.75;5032438;28;20199;-73
2023/12/28 07:06:20;;;;;;;14.50;2.90;;;;;;;9.87;100.00;100947.88;5037857;28;20191;-73
2023/12/28 07:08:46;;;;;;;15.03;3.20;;;;;;;10.00;100.00;100941.78;5041401;28;20185;-73
2023/12/28 07:11:11;;;;;;;22.30;3.50;;;;;;;9.77;100.00;100931.25;5036787;28;20795;-73
2023/12/28 07:13:37;;;;;;;23.27;2.93;;;;;;;10.05;100.00;100949.25;5033180;28;20218;-73
2023/12/28 07:16:02;;;;;;;16.37;2.80;;;;;;;9.60;100.00;100868.25;5035861;28;20222;-72
2023/12/28 07:18:28;;;;;;;11.23;2.90;;;;;;;9.93;100.00;100909.56;5021441;28;20719;-72
2023/12/28 07:20:54;;;;;;;11.33;2.60;;;;;;;9.18;100.00;100819.06;5030281;28;20636;-73
2023/12/28 07:23:19;;;;;;;20.17;2.90;;;;;;;9.36;100.00;100840.03;5036626;28;20175;-72
2023/12/28 07:25:45;;;;;;;14.07;3.00;;;;;;;10.00;100.00;100962.41;5037669;28;20224;-73
2023/12/28 07:28:10;;;;;;;19.17;4.03;;;;;;;9.86;100.00;100938.16;5040540;28;20187;-72
2023/12/28 07:30:37;;;;;;;19.97;3.10;;;;;;;9.96;100.00;100964.63;5037292;28;20215;-72
2023/12/28 07:33:02;;;;;;;17.20;3.23;;;;;;;10.00;100.00;100949.00;5042455;28;20215;-72
2023/12/28 07:35:28;;;;;;;14.33;2.93;;;;;;;9.93;100.00;100943.59;5038666;28;20508;-72
2023/12/28 07:37:54;;;;;;;17.73;3.33;;;;;;;10.13;100.00;100983.97;5028151;28;20226;-72
2023/12/28 07:40:20;;;;;;;15.30;2.90;;;;;;;10.02;100.00;100996.03;5043844;28;20190;-72
2023/12/28 07:42:45;;;;;;;13.33;2.97;;;;;;;9.73;100.00;100948.75;5043254;28;20427;-72
2023/12/28 07:45:10;;;;;;;15.13;3.00;;;;;;;9.96;100.00;100991.44;5043383;28;20230;-72
2023/12/28 07:47:36;;;;;;;14.63;2.97;;;;;;;9.56;100.00;100928.59;5041861;28;20200;-72
2023/12/28 07:50:02;;;;;;;15.03;2.83;;;;;;;10.09;100.00;101031.75;5041631;28;20200;-72
2023/12/28 07:52:27;;;;;;;13.20;2.53;;;;;;;9.88;100.00;100997.72;5045406;28;20639;-72
2023/12/28 07:54:53;;;;;;;13.80;3.07;;;;;;;9.71;100.00;100974.88;5043990;28;20521;-72
2023/12/28 07:57:18;;;;;;;15.47;3.30;;;;;;;9.66;100.00;100974.63;5044540;28;20187;-72
2023/12/28 07:59:44;;;;;;;20.57;3.17;;;;;;;10.00;100.00;101016.00;5043850;28;20544;-72
2023/12/28 08:02:09;;;;;;;16.70;3.53;;;;;;;10.02;100.00;101001.38;5044528;28;20617;-72
2023/12/28 08:04:35;;;;;;;18.07;3.13;;;;;;;9.14;100.00;100863.25;5044426;28;20211;-73
2023/12/28 08:07:00;;;;;;;17.00;3.17;;;;;;;10.02;100.00;101030.88;5038392;28;20249;-73
2023/12/28 08:09:26;;;;;;;17.80;4.17;;;;;;;9.46;100.00;100936.94;5041193;28;20222;-74
2023/12/28 08:11:52;;;;;;;15.40;3.20;;;;;;;9.99;100.00;101008.97;5038877;28;20797;-74
2023/12/28 08:14:17;;;;;;;15.77;3.10;;;;;;;9.30;100.00;100913.88;5040573;28;20545;-74
2023/12/28 08:16:42;;;;;;;17.07;3.67;;;;;;;9.71;100.00;100969.53;5024757;28;20196;-74
2023/12/28 08:19:08;;;;;;;17.05;3.67;;;;;;;9.87;100.00;101008.66;5042909;28;20513;-74
2023/12/28 08:21:33;;;;;;;18.70;3.40;;;;;;;9.06;100.00;100888.28;5040709;28;20199;-74
2023/12/28 08:23:59;;;;;;;24.53;3.50;;;;;;;9.45;100.00;100932.56;5044545;28;20204;-74
2023/12/28 08:26:24;;;;;;;18.27;3.87;;;;;;;9.14;100.00;100876.63;5041936;28;20184;-74
2023/12/28 08:28:50;;;;;;;17.23;3.83;;;;;;;10.03;100.00;101019.13;5043324;28;20222;-74
2023/12/28 08:31:15;;;;;;;18.87;4.07;;;;;;;9.53;100.00;100945.03;5015404;28;20191;-74
2023/12/28 08:33:40;;;;;;;25.53;5.40;;;;;;;10.03;100.00;101013.75;5038474;28;20215;-74
2023/12/28 08:36:07;;;;;;;15.13;3.57;;;;;;;9.71;100.00;100977.56;5022830;28;20533;-74
2023/12/28 08:38:33;;;;;;;27.33;4.93;;;;;;;10.14;100.00;101041.91;5036139;28;20191;-73
2023/12/28 08:40:58;;;;;;;16.73;3.60;;;;;;;9.06;100.00;100882.94;5041706;28;20419;-74
2023/12/28 08:43:23;;;;;;;23.63;4.50;;;;;;;9.65;100.00;100972.97;5039736;28;20682;-74
2023/12/28 08:45:49;;;;;;;21.97;3.70;;;;;;;9.04;100.00;100866.22;5035505;28;20527;-74
2023/12/28 08:48:14;;;;;;;17.77;3.60;;;;;;;9.79;100.00;100976.63;5040550;28;20184;-73
2023/12/28 08:50:40;;;;;;;19.03;3.50;;;;;;;9.53;100.00;100942.34;5042172;28;20577;-74
2023/12/28 08:53:05;;;;;;;22.87;4.13;;;;;;;9.85;100.00;101010.69;5038309;28;20208;-77
2023/12/28 08:55:31;;;;;;;21.87;3.70;;;;;;;10.07;100.00;101024.94;5023632;28;20216;-78
2023/12/28 08:57:56;;;;;;;18.33;3.73;;;;;;;9.84;100.00;100993.78;5038127;28;20242;-76
2023/12/28 09:00:21;;;;;;;22.97;3.93;;;;;;;9.18;100.00;100908.19;5044739;28;20191;-77
2023/12/28 09:02:47;;;;;;;22.90;3.80;;;;;;;9.87;100.00;101038.94;5025015;28;20191;-76
2023/12/28 09:05:12;;;;;;;29.73;5.20;;;;;;;9.31;100.00;100904.00;5024822;28;20212;-76
2023/12/28 09:07:42;;;;;;;16.80;3.70;;;;;;;9.27;100.00;100900.88;5028075;28;20187;-76
2023/12/28 09:10:10;;;;;;;27.40;4.40;;;;;;;9.42;100.00;100931.09;5036120;28;20207;-76
2023/12/28 09:12:35;;;;;;;25.00;4.60;;;;;;;9.55;100.00;100953.72;5032190;28;20466;-75
2023/12/28 09:15:00;;;;;;;23.07;4.37;;;;;;;9.56;100.00;100955.34;5040362;28;20442;-75
2023/12/28 09:17:26;;;;;;;22.70;4.27;;;;;;;9.46;100.00;100939.63;5042346;28;20175;-76
2023/12/28 09:19:51;;;;;;;17.10;3.77;;;;;;;10.10;100.00;101070.13;5038870;28;20263;-76
2023/12/28 09:22:17;;;;;;;26.10;4.80;;;;;;;10.10;100.00;101049.50;5022900;28;20191;-75
2023/12/28 09:24:42;;;;;;;22.80;4.63;;;;;;;9.95;100.00;101041.53;5042879;28;20810;-76
2023/12/28 09:27:08;;;;;;;21.73;4.50;;;;;;;9.35;100.00;100932.88;5042812;28;20187;-75
2023/12/28 09:29:35;;;;;;;23.70;4.87;;;;;;;9.96;100.00;101027.09;5025778;28;20192;-75
2023/12/28 09:32:00;;;;;;;25.03;4.87;;;;;;;10.22;100.00;101073.13;5042779;28;20438;-76
2023/12/28 09:34:25;;;;;;;22.07;5.03;;;;;;;10.19;100.00;101053.72;5040980;28;20459;-76
2023/12/28 09:36:51;;;;;;;24.93;4.57;;;;;;;10.19;100.00;101047.53;5025655;28;20176;-76
2023/12/28 09:39:16;;;;;;;26.57;4.13;;;;;;;10.12;100.00;101054.66;5027977;28;20277;-75
2023/12/28 09:41:46;;;;;;;25.83;5.03;;;;;;;10.26;100.00;101080.59;5042186;28;20184;-75
2023/12/28 09:44:12;;;;;;;20.37;4.40;;;;;;;10.26;100.00;101099.34;5026147;28;20200;-75
2023/12/28 09:46:42;;;;;;;29.03;5.90;;;;;;;10.26;100.00;101083.25;5038278;28;20435;-77
2023/12/28 09:49:07;;;;;;;23.23;4.37;;;;;;;10.10;100.00;101075.47;5023924;28;20837;-75
2023/12/28 09:51:33;;;;;;;26.40;5.03;;;;;;;10.14;100.00;101093.66;5021954;28;20472;-76
2023/12/28 09:53:58;;;;;;;21.83;3.90;;;;;;;10.17;100.00;101074.50;5037897;28;20516;-76
2023/12/28 09:56:24;;;;;;;20.00;4.30;;;;;;;10.27;100.00;101092.16;5027418;28;20199;-75
2023/12/28 09:58:52;;;;;;;19.50;4.67;;;;;;;9.80;100.00;101029.16;5041679;28;20353;-76
2023/12/28 10:01:18;;;;;;;26.63;4.17;;;;;;;10.23;100.00;101072.09;5025516;28;20184;-75
2023/12/28 10:03:44;;;;;;;22.27;4.87;;;;;;;10.34;100.00;101111.84;5036578;28;20449;-76
2023/12/28 10:06:09;;;;;;;24.07;4.03;;;;;;;9.25;100.00;100917.09;5034371;28;20650;-76
2023/12/28 10:08:35;;;;;;;21.27;4.20;;;;;;;10.04;100.00;101079.75;5036608;28;20866;-76
2023/12/28 10:11:02;;;;;;;30.23;5.20;;;;;;;10.18;100.00;101083.38;5037153;28;20255;-76
2023/12/28 10:13:28;;;;;;;21.37;4.83;;;;;;;10.09;100.00;101077.31;5024450;28;20478;-76
2023/12/28 10:15:57;;;;;;;19.10;4.40;;;;;;;10.15;100.00;101083.75;5019972;28;20430;-76
2023/12/28 10:18:23;;;;;;;18.67;4.23;;;;;;;10.29;100.00;101111.59;5039404;28;20594;-76
2023/12/28 10:20:54;;;;;;;25.30;5.70;;;;;;;10.08;100.00;101089.06;5039599;28;20435;-76
2023/12/28 10:23:21;;;;;;;23.23;4.27;;;;;;;10.14;100.00;101087.47;5040629;28;20176;-77
2023/12/28 10:25:46;;;;;;;18.20;4.07;;;;;;;10.21;100.00;101093.72;5039489;28;20435;-76
2023/12/28 10:28:18;;;;;;;20.77;4.50;;;;;;;10.07;100.00;101073.19;5024287;28;20453;-76
2023/12/28 10:30:44;;;;;;;18.70;4.03;;;;;;;10.05;100.00;101068.00;5038932;28;20435;-76
2023/12/28 10:33:09;;;;;;;23.93;4.50;;;;;;;9.92;100.00;101044.59;5038629;28;20476;-76
2023/12/28 10:35:35;;;;;;;20.90;4.63;;;;;;;9.59;100.00;100966.50;5021551;28;20722;-76
2023/12/28 10:38:03;;;;;;;22.00;3.63;;;;;;;10.29;100.00;101101.69;5040840;28;20554;-76
2023/12/28 10:40:30;;;;;;;22.20;4.70;;;;;;;10.32;100.00;101114.69;5038940;28;20817;-76
2023/12/28 10:43:03;;;;;;;18.80;4.03;;;;;;;10.23;100.00;101105.09;5025076;28;20430;-76
2023/12/28 10:45:33;;;;;;;22.00;4.50;;;;;;;10.26;100.00;101114.59;5036875;28;20553;-76
2023/12/28 10:48:10;;;;;;;28.07;4.57;;;;;;;9.42;100.00;100989.19;5042999;28;20934;-76
2023/12/28 10:50:46;;;;;;;21.87;4.40;;;;;;;10.22;100.00;101090.03;5042953;28;20418;-76
2023/12/28 10:53:38;;;;;;;15.90;3.47;;;;;;;10.31;100.00;101113.06;5044644;28;20470;-76
2023/12/28 10:56:19;;;;;;;29.40;4.40;;;;;;;10.27;100.00;101068.03;5024889;28;20434;-76
2023/12/28 10:59:18;;;;;;;18.40;3.83;;;;;;;10.38;100.00;101115.78;5042239;28;20524;-76
2023/12/28 11:01:47;;;;;;;20.70;4.07;;;;;;;10.10;100.00;101046.81;5021657;28;20442;-76
2023/12/28 11:04:19;;;;;;;21.33;4.10;;;;;;;10.38;100.00;101126.53;5026491;28;20453;-76
2023/12/28 11:06:47;;;;;;;24.13;4.77;;;;;;;9.41;100.00;100955.41;5041542;28;20548;-76
2023/12/28 11:09:15;;;;;;;24.43;4.80;;;;;;;10.26;100.00;101063.69;5028186;28;20430;-76
2023/12/28 11:11:43;;;;;;;22.77;4.20;;;;;;;10.35;100.00;101106.28;5049727;28;20488;-76